Hlavní strana
METAR-TAF:

METAR-TAF

Letiště :

Oral, Kazachstán

zeměpisná šířka: 51-15N, zeměpisná délka: 051-17E, výška: 36 m

Aktuální stav počasí

Zpráva byla vytvořena před 35 minutami, v 18:00 UTC
Severní vítr 14 kt
Teplota -13°C
Vlhkost vzduchu 78%
Tlak 1011 hPa
Viditelnost 10 km a více
Žádná oblačnost pod 1500 m, nevyskytují se cumulonimby.

METAR: UARR 181800Z 36007MPS CAVOK M13/M16 Q1011 R04/750345 TEMPO 1000 SN BR BKN004 RMK QFE755/1007

Čas: 23:35 (18:35 UTC)

Předpověď počasí

Zpráva byla vytvořena před 1 hodinou a 30 minutami, v 17:05 UTC
Předpověď platná od 18 v 18 UTC do 19 v 03 UTC
Severní vítr 10 kt s nárazy do 23 kt
Viditelnost: 3100 m
Oblačno až skoro zataženo ve výšce 1100 ft
slabé sněžení, kouřmo
Dočasný
od 18 v 20 UTC do 19 v 02 UTC
Viditelnost: 0700 m
Zataženo ve výšce 300 ft
silné sněžení

TAF: UARR 181705Z 1818/1903 36005G12MPS 3100 -SN BR BKN011 TEMPO 1820/1902 0700 +SN OVC003

Stav a předpovědi počasí z více než 4 000 letišť (zprávy METAR a TAF).

Červené a žluté tečky na mapě představují dostupné meteorologické stanice.

Když kurzor umístíte na tečku, zobrazí se název stanice.

Pak kliknutím zobrazíte stav a předpověď počasí.

Chcete-li změnit mapu, kliknutím na zelené tlačítko se znaménkem +mapu přiblížíte, kliknutím na zelené tlačítko se znaménkem – mapu oddálíte a kliknutím na zelené šipky přejdete na sousední mapy.


METAR-TAF: